createdAt,value
2023-04-09T00:00:14.432Z,96981.34
2023-04-09T00:01:15.949Z,96979.75
2023-04-09T00:02:17.647Z,96983.81
2023-04-09T00:03:19.250Z,96984.94
2023-04-09T00:04:22.453Z,96989.50
2023-04-09T00:05:24.104Z,96989.19
2023-04-09T00:06:26.010Z,96988.25
2023-04-09T00:07:28.126Z,96990.59
2023-04-09T00:08:29.785Z,96989.81
2023-04-09T00:09:32.025Z,96996.72
2023-04-09T00:10:33.591Z,96992.16
2023-04-09T00:11:35.533Z,96989.19
2023-04-09T00:12:37.819Z,96991.38
2023-04-09T00:13:40.053Z,96990.59
2023-04-09T00:14:41.770Z,96989.50
2023-04-09T00:15:43.260Z,96984.00
2023-04-09T00:16:44.939Z,96988.56
2023-04-09T00:17:46.576Z,96991.63
2023-04-09T00:18:48.220Z,96985.47
2023-04-09T00:19:49.790Z,96981.47
2023-04-09T00:20:51.456Z,96982.38
2023-04-09T00:21:53.032Z,96984.75
2023-04-09T00:22:55.583Z,96986.63
2023-04-09T00:23:57.196Z,96989.22
2023-04-09T00:24:58.864Z,96994.13
2023-04-09T00:26:01.314Z,96996.53
2023-04-09T00:27:02.914Z,96989.56
2023-04-09T00:28:04.518Z,96995.03
2023-04-09T00:29:06.230Z,96991.72
2023-04-09T00:30:08.605Z,96984.34
2023-04-09T00:31:10.882Z,96994.56
2023-04-09T00:32:12.525Z,96997.16
2023-04-09T00:33:14.041Z,96994.25
2023-04-09T00:34:15.890Z,96997.03
2023-04-09T00:35:17.633Z,97001.19
2023-04-09T00:36:19.191Z,96997.47
2023-04-09T00:37:21.043Z,96997.47
2023-04-09T00:38:22.751Z,96995.31
2023-04-09T00:39:24.342Z,96999.66
2023-04-09T00:40:26.117Z,96999.28
2023-04-09T00:41:27.613Z,96999.06
2023-04-09T00:42:36.464Z,96998.22
2023-04-09T00:43:38.001Z,96994.94
2023-04-09T00:44:39.537Z,96995.84
2023-04-09T00:45:41.469Z,96990.75
2023-04-09T00:46:43.133Z,96991.28
2023-04-09T00:47:46.336Z,96986.38
2023-04-09T00:48:47.865Z,96993.06
2023-04-09T00:49:49.564Z,96987.97
2023-04-09T00:50:51.455Z,96990.38
2023-04-09T00:51:53.753Z,96999.78
2023-04-09T00:52:56.168Z,96986.31
2023-04-09T00:53:57.910Z,96978.19
2023-04-09T00:55:01.344Z,96977.44
2023-04-09T00:56:04.235Z,96981.56
2023-04-09T00:57:06.033Z,96978.75
2023-04-09T00:58:07.920Z,96980.19
2023-04-09T00:59:09.438Z,96976.41
2023-04-09T01:00:13.100Z,96984.91
2023-04-09T01:01:14.803Z,96973.59
2023-04-09T01:02:16.726Z,96976.59
2023-04-09T01:03:18.532Z,96980.53
2023-04-09T01:04:21.234Z,96976.28
2023-04-09T01:05:25.170Z,96979.88
2023-04-09T01:06:49.915Z,96985.34
2023-04-09T01:08:06.571Z,96984.22
2023-04-09T01:09:18.900Z,96987.44
2023-04-09T01:10:32.542Z,96982.41
2023-04-09T01:11:56.763Z,96988.91
2023-04-09T01:13:08.913Z,96991.22
2023-04-09T01:14:29.232Z,96989.47
2023-04-09T01:15:36.958Z,96995.16
2023-04-09T01:16:42.595Z,96990.13
2023-04-09T01:17:53.106Z,96988.63
2023-04-09T01:19:08.130Z,96988.63
2023-04-09T01:20:09.822Z,96993.06
2023-04-09T01:21:16.272Z,96990.75
2023-04-09T01:22:41.293Z,96988.72
2023-04-09T01:24:09.827Z,96991.13
2023-04-09T01:25:30.312Z,96985.19
2023-04-09T01:26:50.381Z,96990.50
2023-04-09T01:28:19.072Z,96985.34
2023-04-09T01:29:22.851Z,96992.56
2023-04-09T01:30:26.947Z,96995.22
2023-04-09T01:31:32.042Z,96991.75
2023-04-09T01:32:37.152Z,96990.75
2023-04-09T01:33:40.049Z,96987.81
2023-04-09T01:34:42.948Z,96993.03
2023-04-09T01:35:46.599Z,96986.44
2023-04-09T01:36:53.945Z,96995.91
2023-04-09T01:37:57.220Z,96988.25
2023-04-09T01:39:01.485Z,96984.66
2023-04-09T01:40:04.798Z,96986.41
2023-04-09T01:41:07.648Z,96991.16
2023-04-09T01:42:12.264Z,96988.78
2023-04-09T01:43:14.966Z,96995.63
2023-04-09T01:44:17.810Z,96991.06
2023-04-09T01:45:21.033Z,96986.00
2023-04-09T01:46:23.513Z,96993.50
2023-04-09T01:47:26.244Z,96983.63
2023-04-09T01:48:29.793Z,96987.56
2023-04-09T01:49:31.815Z,96988.16
2023-04-09T01:50:33.874Z,96980.91
2023-04-09T01:51:36.389Z,96976.38
2023-04-09T01:52:38.298Z,96972.69
2023-04-09T01:53:40.966Z,96971.81
2023-04-09T01:54:43.252Z,96975.00
2023-04-09T01:55:44.882Z,96970.50
2023-04-09T01:56:48.445Z,96978.28
2023-04-09T01:57:50.025Z,96972.94
2023-04-09T01:58:52.831Z,96977.66
2023-04-09T01:59:55.177Z,96978.44
2023-04-09T02:01:05.602Z,96974.81
2023-04-09T02:02:15.024Z,96980.44
2023-04-09T02:03:24.547Z,96988.06
2023-04-09T02:04:34.057Z,96979.09
2023-04-09T02:05:45.257Z,96977.31
2023-04-09T02:07:10.125Z,96973.84
2023-04-09T02:08:15.733Z,96974.31
2023-04-09T02:09:20.308Z,96972.34
2023-04-09T02:10:26.483Z,96972.72
2023-04-09T02:11:32.856Z,96975.59
2023-04-09T02:12:38.397Z,96973.19
2023-04-09T02:13:41.678Z,96966.81
2023-04-09T02:14:46.809Z,96970.50
2023-04-09T02:15:49.509Z,96962.56
2023-04-09T02:16:51.190Z,96968.41
2023-04-09T02:17:53.652Z,96965.75
2023-04-09T02:19:01.269Z,96962.44
2023-04-09T02:20:03.103Z,96960.28
2023-04-09T02:21:05.961Z,96964.38
2023-04-09T02:22:07.845Z,96963.75
2023-04-09T02:23:09.617Z,96970.03
2023-04-09T02:24:11.211Z,96964.41
2023-04-09T02:25:13.167Z,96958.78
2023-04-09T02:26:14.757Z,96955.81
2023-04-09T02:27:16.493Z,96962.41
2023-04-09T02:28:18.328Z,96962.88
2023-04-09T02:29:19.883Z,96967.59
2023-04-09T02:30:21.545Z,96967.59
2023-04-09T02:31:23.226Z,96968.09
2023-04-09T02:32:24.802Z,96970.13
2023-04-09T02:33:26.414Z,96965.28
2023-04-09T02:34:28.479Z,96964.94
2023-04-09T02:35:30.011Z,96965.75
2023-04-09T02:36:31.634Z,96965.13
2023-04-09T02:37:33.200Z,96959.47
2023-04-09T02:38:34.737Z,96969.25
2023-04-09T02:39:36.243Z,96959.19
2023-04-09T02:40:37.778Z,96964.56
2023-04-09T02:41:39.264Z,96965.34
2023-04-09T02:42:40.809Z,96960.03
2023-04-09T02:43:42.390Z,96959.69
2023-04-09T02:44:44.438Z,96963.00
2023-04-09T02:45:45.941Z,96972.09
2023-04-09T02:46:48.187Z,96966.88
2023-04-09T02:47:49.733Z,96964.19
2023-04-09T02:48:51.525Z,96965.75
2023-04-09T02:49:53.264Z,96961.81
2023-04-09T02:50:55.008Z,96961.31
2023-04-09T02:51:56.577Z,96962.69
2023-04-09T02:52:58.160Z,96962.88
2023-04-09T02:53:59.685Z,96969.81
2023-04-09T02:55:01.265Z,96964.47
2023-04-09T02:56:02.931Z,96958.50
2023-04-09T02:57:04.538Z,96955.84
2023-04-09T02:58:06.149Z,96953.78
2023-04-09T02:59:07.755Z,96954.66
2023-04-09T03:00:10.106Z,96957.31
2023-04-09T03:01:11.793Z,96952.13
2023-04-09T03:02:13.569Z,96956.78
2023-04-09T03:03:15.488Z,96960.53
2023-04-09T03:04:17.165Z,96954.84
2023-04-09T03:05:18.720Z,96965.44
2023-04-09T03:06:20.278Z,96960.94
2023-04-09T03:07:22.742Z,96958.91
2023-04-09T03:08:24.305Z,96963.31
2023-04-09T03:09:25.844Z,96957.38
2023-04-09T03:10:27.400Z,96961.31
2023-04-09T03:11:28.916Z,96963.84
2023-04-09T03:12:30.459Z,96964.81
2023-04-09T03:13:32.014Z,96960.09
2023-04-09T03:14:35.190Z,96959.16
2023-04-09T03:15:36.959Z,96961.56
2023-04-09T03:16:38.815Z,96960.41
2023-04-09T03:17:40.540Z,96960.22
2023-04-09T03:18:42.110Z,96968.59
2023-04-09T03:19:43.693Z,96962.53
2023-04-09T03:20:45.817Z,96966.03
2023-04-09T03:21:49.307Z,96959.97
2023-04-09T03:22:50.863Z,96961.44
2023-04-09T03:23:52.442Z,96958.13
2023-04-09T03:24:54.032Z,96960.69
2023-04-09T03:26:03.819Z,96957.38
2023-04-09T03:27:05.484Z,96965.25
2023-04-09T03:28:07.076Z,96952.41
2023-04-09T03:29:08.635Z,96964.97
2023-04-09T03:30:11.062Z,96963.75
2023-04-09T03:31:14.123Z,96962.84
2023-04-09T03:32:17.334Z,96965.69
2023-04-09T03:33:20.578Z,96971.03
2023-04-09T03:34:22.122Z,96966.28
2023-04-09T03:35:23.782Z,96959.50
2023-04-09T03:36:25.484Z,96962.19
2023-04-09T03:37:27.047Z,96960.97
2023-04-09T03:38:28.577Z,96959.72
2023-04-09T03:39:32.930Z,96963.06
2023-04-09T03:40:34.491Z,96959.94
2023-04-09T03:41:36.117Z,96962.94
2023-04-09T03:42:37.722Z,96966.72
2023-04-09T03:43:39.291Z,96963.13
2023-04-09T03:44:40.902Z,96970.66
2023-04-09T03:45:42.460Z,96970.66
2023-04-09T03:46:44.124Z,96970.19
2023-04-09T03:47:45.698Z,96975.53
2023-04-09T03:48:47.323Z,96971.41
2023-04-09T03:49:48.830Z,96976.25
2023-04-09T03:50:50.389Z,96979.34
2023-04-09T03:51:51.958Z,96978.28
2023-04-09T03:52:53.490Z,96976.09
2023-04-09T03:53:55.037Z,96980.00
2023-04-09T03:54:56.554Z,96980.50
2023-04-09T03:55:58.184Z,96987.41
2023-04-09T03:57:00.112Z,96983.16
2023-04-09T03:58:01.712Z,96987.09
2023-04-09T03:59:03.223Z,96993.41
2023-04-09T04:00:05.380Z,96985.56
2023-04-09T04:01:06.970Z,96994.22
2023-04-09T04:02:08.613Z,96985.56
2023-04-09T04:03:12.007Z,96986.53
2023-04-09T04:04:14.237Z,96991.25
2023-04-09T04:05:15.846Z,96986.06
2023-04-09T04:06:17.409Z,96992.38
2023-04-09T04:07:18.920Z,96993.16
2023-04-09T04:08:20.451Z,96993.63
2023-04-09T04:09:22.224Z,96992.84
2023-04-09T04:10:23.757Z,96993.94
2023-04-09T04:11:25.426Z,96991.13
2023-04-09T04:12:26.977Z,96995.38
2023-04-09T04:13:28.593Z,96993.63
2023-04-09T04:14:30.243Z,96995.69
2023-04-09T04:15:31.756Z,97003.53
2023-04-09T04:16:33.381Z,96996.81
2023-04-09T04:17:35.675Z,96998.53
2023-04-09T04:18:37.802Z,96999.47
2023-04-09T04:19:39.396Z,97003.44
2023-04-09T04:20:41.061Z,96999.47
2023-04-09T04:21:42.572Z,96994.28
2023-04-09T04:22:44.085Z,96998.19
2023-04-09T04:23:45.720Z,97007.00
2023-04-09T04:24:47.299Z,97009.38
2023-04-09T04:25:48.867Z,97007.66
2023-04-09T04:26:50.683Z,97008.59
2023-04-09T04:27:52.249Z,97005.31
2023-04-09T04:28:54.034Z,97008.78
2023-04-09T04:29:58.782Z,97009.22
2023-04-09T04:31:00.405Z,97006.75
2023-04-09T04:32:02.036Z,97009.88
2023-04-09T04:33:03.717Z,97017.09
2023-04-09T04:34:05.279Z,97014.56
2023-04-09T04:35:07.235Z,97010.00
2023-04-09T04:36:13.284Z,97015.66
2023-04-09T04:37:14.863Z,97011.41
2023-04-09T04:38:16.381Z,97014.22
2023-04-09T04:39:17.913Z,97012.31
2023-04-09T04:40:19.471Z,97014.19
2023-04-09T04:41:21.174Z,97017.47
2023-04-09T04:42:23.284Z,97019.19
2023-04-09T04:43:24.870Z,97017.66
2023-04-09T04:44:26.424Z,97019.56
2023-04-09T04:45:27.990Z,97022.09
2023-04-09T04:46:29.534Z,97019.28
2023-04-09T04:47:31.084Z,97033.28
2023-04-09T04:48:32.710Z,97021.97
2023-04-09T04:49:34.244Z,97021.03
2023-04-09T04:50:35.822Z,97029.66
2023-04-09T04:51:37.351Z,97032.81
2023-04-09T04:52:40.412Z,97033.31
2023-04-09T04:53:41.941Z,97029.50
2023-04-09T04:54:43.765Z,97029.22
2023-04-09T04:55:45.316Z,97030.47
2023-04-09T04:56:46.853Z,97026.22
2023-04-09T04:57:50.872Z,97030.00
2023-04-09T04:58:52.641Z,97030.00
2023-04-09T04:59:54.484Z,97030.78
2023-04-09T05:00:56.054Z,97032.03
2023-04-09T05:01:57.651Z,97032.78
2023-04-09T05:02:59.460Z,97029.63
2023-04-09T05:04:03.227Z,97024.59
2023-04-09T05:05:05.216Z,97025.47
2023-04-09T05:06:06.818Z,97032.53
2023-04-09T05:07:08.372Z,97026.19
2023-04-09T05:08:09.925Z,97029.19
2023-04-09T05:09:12.150Z,97030.91
2023-04-09T05:10:15.273Z,97023.03
2023-04-09T05:11:17.014Z,97025.69
2023-04-09T05:12:20.113Z,97028.16
2023-04-09T05:13:24.015Z,97022.41
2023-04-09T05:14:25.814Z,97025.19
2023-04-09T05:15:27.649Z,97030.31
2023-04-09T05:16:29.227Z,97020.59
2023-04-09T05:17:31.092Z,97020.00
2023-04-09T05:18:32.636Z,97024.72
2023-04-09T05:19:34.190Z,97020.28
2023-04-09T05:20:36.427Z,97024.84
2023-04-09T05:21:38.027Z,97024.72
2023-04-09T05:22:39.668Z,97027.88
2023-04-09T05:23:41.469Z,97024.13
2023-04-09T05:24:43.080Z,97032.16
2023-04-09T05:25:44.675Z,97021.63
2023-04-09T05:26:46.180Z,97028.91
2023-04-09T05:27:47.710Z,97029.72
2023-04-09T05:28:49.757Z,97025.03
2023-04-09T05:29:51.593Z,97028.66
2023-04-09T05:30:53.282Z,97028.03
2023-04-09T05:31:54.873Z,97026.47
2023-04-09T05:32:56.485Z,97028.22
2023-04-09T05:33:58.084Z,97024.00
2023-04-09T05:34:59.635Z,97023.38
2023-04-09T05:36:01.233Z,97032.47
2023-04-09T05:37:02.793Z,97027.31
2023-04-09T05:38:04.395Z,97032.81
2023-04-09T05:39:05.997Z,97031.72
2023-04-09T05:40:08.193Z,97033.03
2023-04-09T05:41:10.040Z,97028.31
2023-04-09T05:42:11.750Z,97028.19
2023-04-09T05:43:13.329Z,97026.59
2023-04-09T05:44:15.001Z,97032.28
2023-04-09T05:45:16.581Z,97029.91
2023-04-09T05:46:18.140Z,97024.09
2023-04-09T05:47:19.715Z,97028.63
2023-04-09T05:48:21.306Z,97025.31
2023-04-09T05:49:22.912Z,97030.22
2023-04-09T05:50:24.499Z,97025.03
2023-04-09T05:51:26.276Z,97024.72
2023-04-09T05:52:28.579Z,97031.31
2023-04-09T05:53:32.127Z,97031.66
2023-04-09T05:54:33.769Z,97027.38
2023-04-09T05:55:35.297Z,97032.25
2023-04-09T05:56:36.867Z,97027.22
2023-04-09T05:57:38.476Z,97028.16
2023-04-09T05:58:40.017Z,97027.81
2023-04-09T05:59:41.579Z,97030.81
2023-04-09T06:00:43.148Z,97030.78
2023-04-09T06:01:44.729Z,97033.28
2023-04-09T06:02:46.491Z,97033.97
2023-04-09T06:03:48.270Z,97034.75
2023-04-09T06:04:50.002Z,97030.78
2023-04-09T06:05:51.617Z,97032.19
2023-04-09T06:06:53.202Z,97032.50
2023-04-09T06:07:54.755Z,97032.66
2023-04-09T06:08:56.333Z,97026.50
2023-04-09T06:09:57.987Z,97021.47
2023-04-09T06:10:59.648Z,97029.31
2023-04-09T06:12:01.240Z,97024.88
2023-04-09T06:13:02.772Z,97032.75
2023-04-09T06:14:04.301Z,97029.53
2023-04-09T06:15:06.329Z,97026.25
2023-04-09T06:16:08.736Z,97019.19
2023-04-09T06:17:10.356Z,97020.75
2023-04-09T06:18:11.865Z,97023.44
2023-04-09T06:19:16.194Z,97022.94
2023-04-09T06:20:17.858Z,97023.38
2023-04-09T06:21:19.605Z,97023.81
2023-04-09T06:22:21.170Z,97030.09
2023-04-09T06:23:22.669Z,97025.16
2023-04-09T06:24:24.342Z,97023.38
2023-04-09T06:25:26.084Z,97026.81
2023-04-09T06:26:27.723Z,97024.84
2023-04-09T06:27:29.280Z,97027.88
2023-04-09T06:28:32.160Z,97032.56
2023-04-09T06:29:33.841Z,97024.22
2023-04-09T06:30:37.031Z,97032.97
2023-04-09T06:31:38.847Z,97031.03
2023-04-09T06:32:52.985Z,97035.28
2023-04-09T06:33:56.102Z,97031.75
2023-04-09T06:34:58.090Z,97035.56
2023-04-09T06:35:59.671Z,97034.41
2023-04-09T06:37:01.321Z,97028.16
2023-04-09T06:38:02.872Z,97037.56
2023-04-09T06:39:04.589Z,97033.25
2023-04-09T06:40:07.408Z,97032.72
2023-04-09T06:41:09.197Z,97037.88
2023-04-09T06:42:10.820Z,97035.22
2023-04-09T06:43:12.315Z,97035.47
2023-04-09T06:44:14.021Z,97035.72
2023-04-09T06:45:15.799Z,97036.66
2023-04-09T06:46:20.142Z,97026.94
2023-04-09T06:47:21.860Z,97026.88
2023-04-09T06:48:23.371Z,97028.41
2023-04-09T06:49:24.936Z,97024.19
2023-04-09T06:50:26.901Z,97026.16
2023-04-09T06:51:28.464Z,97023.25
2023-04-09T06:52:30.345Z,97018.94
2023-04-09T06:53:32.022Z,97022.84
2023-04-09T06:54:33.617Z,97018.84
2023-04-09T06:55:35.327Z,97022.97
2023-04-09T06:56:36.897Z,97025.56
2023-04-09T06:57:39.294Z,97021.19
2023-04-09T06:58:40.933Z,97020.50
2023-04-09T06:59:42.442Z,97017.72
2023-04-09T07:00:44.014Z,97023.56
2023-04-09T07:01:45.927Z,97020.03
2023-04-09T07:02:47.683Z,97019.09
2023-04-09T07:03:49.576Z,97019.47
2023-04-09T07:04:51.531Z,97011.56
2023-04-09T07:05:54.089Z,97016.31
2023-04-09T07:06:56.927Z,97011.19
2023-04-09T07:07:58.461Z,97013.94
2023-04-09T07:09:00.005Z,97009.56
2023-04-09T07:10:01.796Z,97012.94
2023-04-09T07:11:03.584Z,97018.13
2023-04-09T07:12:05.206Z,97009.50
2023-04-09T07:13:07.250Z,97011.63
2023-04-09T07:14:08.796Z,97008.59
2023-04-09T07:15:10.513Z,97014.56
2023-04-09T07:16:12.124Z,97005.97
2023-04-09T07:17:13.667Z,97007.31
2023-04-09T07:18:15.318Z,97004.41
2023-04-09T07:19:16.852Z,97003.63
2023-04-09T07:20:20.700Z,97002.19
2023-04-09T07:21:22.385Z,97004.50
2023-04-09T07:22:26.757Z,97008.22
2023-04-09T07:23:28.282Z,97008.09
2023-04-09T07:24:29.810Z,97001.16
2023-04-09T07:25:31.484Z,96998.78
2023-04-09T07:26:33.417Z,97004.75
2023-04-09T07:27:35.317Z,97003.06
2023-04-09T07:28:37.036Z,97004.53
2023-04-09T07:29:38.610Z,97008.44
2023-04-09T07:30:40.447Z,97001.94
2023-04-09T07:31:42.035Z,97001.16
2023-04-09T07:32:43.801Z,97003.53
2023-04-09T07:33:45.439Z,97002.06
2023-04-09T07:34:46.957Z,97008.31
2023-04-09T07:35:48.557Z,97004.84
2023-04-09T07:36:50.279Z,97001.94
2023-04-09T07:37:51.905Z,96996.78
2023-04-09T07:38:53.812Z,97001.47
2023-04-09T07:39:55.666Z,97000.44
2023-04-09T07:40:57.278Z,97006.19
2023-04-09T07:42:02.816Z,97005.28
2023-04-09T07:43:05.874Z,97001.00
2023-04-09T07:44:07.569Z,97003.38
2023-04-09T07:45:09.405Z,97000.78
2023-04-09T07:46:11.186Z,97001.78
2023-04-09T07:47:13.017Z,97000.75
2023-04-09T07:48:14.609Z,97005.22
2023-04-09T07:49:17.630Z,97001.66
2023-04-09T07:50:19.212Z,97003.91
2023-04-09T07:51:20.793Z,97002.38
2023-04-09T07:52:22.353Z,97003.50
2023-04-09T07:53:23.904Z,97005.53
2023-04-09T07:54:25.513Z,97006.22
2023-04-09T07:55:28.404Z,97012.47
2023-04-09T07:56:29.905Z,97012.91
2023-04-09T07:57:33.092Z,97008.66
2023-04-09T07:58:34.652Z,97016.69
2023-04-09T07:59:36.498Z,97018.03
2023-04-09T08:00:38.155Z,97021.34
2023-04-09T08:01:39.788Z,97020.50
2023-04-09T08:02:42.048Z,97021.94
2023-04-09T08:03:43.945Z,97017.06
2023-04-09T08:04:45.879Z,97023.44
2023-04-09T08:05:47.633Z,97012.94
2023-04-09T08:06:52.298Z,97015.38
2023-04-09T08:07:53.835Z,97019.19
2023-04-09T08:08:55.344Z,97016.28
2023-04-09T08:09:56.888Z,97020.63
2023-04-09T08:10:58.444Z,97016.97
2023-04-09T08:12:01.160Z,97021.44
2023-04-09T08:13:02.751Z,97022.78
2023-04-09T08:14:06.240Z,97018.84
2023-04-09T08:15:08.375Z,97022.00
2023-04-09T08:16:09.971Z,97014.03
2023-04-09T08:17:11.501Z,97018.97
2023-04-09T08:18:13.006Z,97020.66
2023-04-09T08:19:16.460Z,97022.56
2023-04-09T08:20:18.109Z,97017.63
2023-04-09T08:21:19.981Z,97014.81
2023-04-09T08:22:21.680Z,97024.00
2023-04-09T08:23:23.214Z,97020.31
2023-04-09T08:24:24.953Z,97018.06
2023-04-09T08:25:26.477Z,97022.00
2023-04-09T08:26:27.985Z,97009.56
2023-04-09T08:27:29.619Z,97017.28
2023-04-09T08:28:31.273Z,97021.88
2023-04-09T08:29:34.513Z,97009.22
2023-04-09T08:30:36.373Z,97018.97
2023-04-09T08:31:38.027Z,97022.56
2023-04-09T08:32:39.719Z,97018.28
2023-04-09T08:33:41.318Z,97021.31
2023-04-09T08:34:42.973Z,97012.69
2023-04-09T08:35:44.836Z,97013.38
2023-04-09T08:36:47.246Z,97009.56
2023-04-09T08:37:49.168Z,97014.94
2023-04-09T08:38:50.920Z,97016.50
2023-04-09T08:39:52.588Z,97014.47
2023-04-09T08:40:54.117Z,97015.38
2023-04-09T08:42:00.018Z,97018.38
2023-04-09T08:43:05.622Z,97018.53
2023-04-09T08:44:07.277Z,97010.09
2023-04-09T08:45:09.292Z,97016.25
2023-04-09T08:46:11.053Z,97016.38
2023-04-09T08:47:13.436Z,97014.22
2023-04-09T08:48:16.116Z,97010.00
2023-04-09T08:49:17.752Z,97013.00
2023-04-09T08:50:19.742Z,97015.84
2023-04-09T08:51:24.749Z,97009.06
2023-04-09T08:52:33.666Z,97001.44
2023-04-09T08:53:36.224Z,97014.44
2023-04-09T08:54:37.984Z,97005.25
2023-04-09T08:55:39.937Z,97005.56
2023-04-09T08:56:41.577Z,97000.97
2023-04-09T08:57:43.522Z,97003.31
2023-04-09T08:58:46.905Z,97008.38
2023-04-09T08:59:48.473Z,97004.56
2023-04-09T09:00:49.994Z,97014.44
2023-04-09T09:02:07.547Z,97005.28
2023-04-09T09:03:15.986Z,97012.00
2023-04-09T09:04:17.630Z,97001.66
2023-04-09T09:05:35.841Z,97004.88
2023-04-09T09:06:39.490Z,97001.41
2023-04-09T09:07:53.558Z,97001.22
2023-04-09T09:09:05.463Z,96999.19
2023-04-09T09:10:07.969Z,97003.13
2023-04-09T09:11:09.470Z,97000.97
2023-04-09T09:12:11.034Z,97003.97
2023-04-09T09:13:26.413Z,97006.75
2023-04-09T09:14:32.859Z,97006.13
2023-04-09T09:15:34.404Z,97004.44
2023-04-09T09:16:40.225Z,97003.06
2023-04-09T09:17:55.073Z,96994.03
2023-04-09T09:18:57.505Z,96989.84
2023-04-09T09:19:59.359Z,96996.59
2023-04-09T09:21:11.772Z,96994.16
2023-04-09T09:22:13.382Z,96993.13
2023-04-09T09:23:14.996Z,96990.34
2023-04-09T09:24:17.963Z,96996.88
2023-04-09T09:25:23.352Z,96993.78
2023-04-09T09:26:27.611Z,96991.50
2023-04-09T09:27:40.573Z,96987.13
2023-04-09T09:28:42.768Z,96985.34
2023-04-09T09:29:45.194Z,96994.53
2023-04-09T09:30:48.697Z,96984.56
2023-04-09T09:31:53.368Z,96986.81
2023-04-09T09:33:05.879Z,96980.13
2023-04-09T09:34:10.281Z,96977.09
2023-04-09T09:35:12.098Z,96980.78
2023-04-09T09:36:14.306Z,96973.47
2023-04-09T09:37:28.103Z,96987.19
2023-04-09T09:38:30.588Z,96979.22
2023-04-09T09:39:46.676Z,96972.03
2023-04-09T09:40:49.506Z,96977.41
2023-04-09T09:42:07.629Z,96978.28
2023-04-09T09:43:09.509Z,96979.66
2023-04-09T09:44:12.976Z,96976.72
2023-04-09T09:45:20.575Z,96976.16
2023-04-09T09:46:22.986Z,96975.81
2023-04-09T09:47:25.497Z,96983.63
2023-04-09T09:48:28.388Z,96983.97
2023-04-09T09:49:30.077Z,96977.81
2023-04-09T09:50:34.684Z,96975.56
2023-04-09T09:51:39.302Z,96973.66
2023-04-09T09:52:45.600Z,96981.13
2023-04-09T09:53:51.948Z,96980.47
2023-04-09T09:54:55.873Z,96986.50
2023-04-09T09:56:00.093Z,96975.75
2023-04-09T09:57:06.562Z,96981.56
2023-04-09T09:58:24.685Z,96972.81
2023-04-09T09:59:32.099Z,96979.38
2023-04-09T10:00:35.770Z,96980.75
2023-04-09T10:01:38.143Z,96979.28
2023-04-09T10:02:56.825Z,96973.22
2023-04-09T10:04:00.557Z,96968.81
2023-04-09T10:05:05.921Z,96968.81
2023-04-09T10:06:09.109Z,96970.19
2023-04-09T10:07:11.097Z,96969.50
2023-04-09T10:08:13.217Z,96961.50
2023-04-09T10:09:15.628Z,96956.25
2023-04-09T10:10:17.581Z,96959.72
2023-04-09T10:11:20.440Z,96965.13
2023-04-09T10:12:26.297Z,96964.75
2023-04-09T10:13:37.660Z,96964.16
2023-04-09T10:14:40.501Z,96960.06
2023-04-09T10:15:44.697Z,96958.25
2023-04-09T10:16:48.102Z,96954.66
2023-04-09T10:17:50.736Z,96962.34
2023-04-09T10:18:53.718Z,96956.09
2023-04-09T10:20:05.356Z,96955.50
2023-04-09T10:21:14.565Z,96949.25
2023-04-09T10:22:20.373Z,96951.19
2023-04-09T10:23:34.143Z,96952.22
2023-04-09T10:24:36.681Z,96951.81
2023-04-09T10:25:38.442Z,96954.78
2023-04-09T10:26:41.999Z,96953.84
2023-04-09T10:27:48.970Z,96946.59
2023-04-09T10:29:09.655Z,96953.72
2023-04-09T10:30:31.387Z,96945.31
2023-04-09T10:31:52.906Z,96954.22
2023-04-09T10:32:54.934Z,96947.66
2023-04-09T10:34:04.278Z,96951.69
2023-04-09T10:35:06.988Z,96945.84
2023-04-09T10:36:12.947Z,96943.16
2023-04-09T10:37:21.554Z,96948.97
2023-04-09T10:38:36.059Z,96949.03
2023-04-09T10:39:45.087Z,96955.88
2023-04-09T10:40:51.338Z,96952.59
2023-04-09T10:42:32.728Z,96946.28
2023-04-09T10:43:36.616Z,96939.50
2023-04-09T10:44:41.501Z,96943.31
2023-04-09T10:45:43.116Z,96941.16
2023-04-09T10:46:46.138Z,96947.25
2023-04-09T10:47:51.554Z,96934.94
2023-04-09T10:49:38.680Z,96944.94
2023-04-09T10:50:44.228Z,96937.91
2023-04-09T10:51:51.041Z,96937.69
2023-04-09T10:52:56.418Z,96937.53
2023-04-09T10:53:58.138Z,96928.50
2023-04-09T10:54:59.781Z,96931.53
2023-04-09T10:56:01.482Z,96925.47
2023-04-09T10:57:09.049Z,96929.06
2023-04-09T10:58:13.208Z,96930.41
2023-04-09T10:59:15.577Z,96921.66
2023-04-09T11:00:18.909Z,96923.25
2023-04-09T11:01:24.267Z,96923.00
2023-04-09T11:02:31.975Z,96920.56
2023-04-09T11:03:41.520Z,96917.53
2023-04-09T11:05:01.176Z,96919.19
2023-04-09T11:06:09.427Z,96913.50
2023-04-09T11:07:11.557Z,96921.22
2023-04-09T11:08:14.298Z,96916.22
2023-04-09T11:09:15.908Z,96923.13
2023-04-09T11:10:17.601Z,96924.25
2023-04-09T11:11:25.428Z,96912.22
2023-04-09T11:12:27.023Z,96917.09
2023-04-09T11:13:30.519Z,96917.94
2023-04-09T11:14:33.915Z,96917.94
2023-04-09T11:15:36.793Z,96912.59
2023-04-09T11:16:38.390Z,96919.81
2023-04-09T11:17:40.811Z,96911.03
2023-04-09T11:18:42.409Z,96905.34
2023-04-09T11:19:44.589Z,96911.03
2023-04-09T11:20:46.394Z,96908.16
2023-04-09T11:21:48.500Z,96906.53
2023-04-09T11:22:51.772Z,96909.56
2023-04-09T11:23:53.717Z,96909.63
2023-04-09T11:24:55.523Z,96914.28
2023-04-09T11:25:57.200Z,96902.59
2023-04-09T11:27:02.110Z,96905.69
2023-04-09T11:28:05.141Z,96903.03
2023-04-09T11:29:10.417Z,96905.56
2023-04-09T11:30:12.258Z,96897.09
2023-04-09T11:31:13.833Z,96905.44
2023-04-09T11:32:15.440Z,96898.75
2023-04-09T11:33:19.626Z,96900.19
2023-04-09T11:34:21.723Z,96900.00
2023-04-09T11:35:23.839Z,96907.41
2023-04-09T11:36:27.623Z,96900.13
2023-04-09T11:37:29.364Z,96890.81
2023-04-09T11:38:31.884Z,96898.22
2023-04-09T11:39:37.148Z,96901.59
2023-04-09T11:40:48.095Z,96900.91
2023-04-09T11:41:50.242Z,96890.75
2023-04-09T11:42:53.805Z,96887.78
2023-04-09T11:43:55.339Z,96890.47
2023-04-09T11:44:57.282Z,96893.19
2023-04-09T11:45:59.500Z,96896.56
2023-04-09T11:47:01.188Z,96895.25
2023-04-09T11:48:03.192Z,96898.63
2023-04-09T11:49:05.669Z,96893.41
2023-04-09T11:50:08.771Z,96893.31
2023-04-09T11:51:10.519Z,96895.16
2023-04-09T11:52:12.141Z,96894.00
2023-04-09T11:53:20.910Z,96894.69
2023-04-09T11:54:22.517Z,96896.25
2023-04-09T11:55:26.120Z,96900.09
2023-04-09T11:56:31.124Z,96893.38
2023-04-09T11:57:36.625Z,96889.53
2023-04-09T11:58:38.204Z,96896.84
2023-04-09T11:59:41.052Z,96890.84
2023-04-09T12:00:42.779Z,96889.97
2023-04-09T12:01:49.885Z,96888.97
2023-04-09T12:02:59.000Z,96885.75
2023-04-09T12:04:01.599Z,96882.72
2023-04-09T12:05:04.578Z,96878.91
2023-04-09T12:06:07.201Z,96877.25
2023-04-09T12:07:10.047Z,96879.03
2023-04-09T12:08:12.005Z,96881.31
2023-04-09T12:09:14.294Z,96878.16
2023-04-09T12:10:16.064Z,96880.78
2023-04-09T12:11:17.593Z,96881.56
2023-04-09T12:12:20.023Z,96879.28
2023-04-09T12:13:21.802Z,96880.44
2023-04-09T12:14:23.385Z,96879.03
2023-04-09T12:15:25.488Z,96878.09
2023-04-09T12:16:27.217Z,96874.59
2023-04-09T12:17:28.856Z,96876.84
2023-04-09T12:18:30.821Z,96876.84
2023-04-09T12:19:32.357Z,96876.75
2023-04-09T12:20:42.375Z,96874.53
2023-04-09T12:21:55.830Z,96881.97
2023-04-09T12:23:00.201Z,96870.28
2023-04-09T12:24:01.769Z,96869.63
2023-04-09T12:25:03.387Z,96875.78